Terminal Aerodrome Forecast
Issued by NWS Pocatello, ID

Home | Current Version | Previous Version | Text Only | Print | Product List | Glossary On
Versions: 1 2 3 4 5 6 7 8 9 10 11 12 13 14 15 16
422
FTUS45 KPIH 141121
TAFPIH
TAF
KPIH 141121Z 1412/1512 22014KT P6SM VCSH OVC025
      TEMPO 1412/1414 5SM -SHRASN BR OVC015
     FM141500 23019G29KT P6SM -SHRA BKN020 OVC040
     FM142100 23021G31KT P6SM VCSH SCT020 BKN040
     FM150300 22015G25KT P6SM SCT020 BKN040=

USA.gov is the U.S. government's official web portal to all federal, state and local government web resources and services.